createdAt,value
2023-01-20T00:01:48.996Z,-0.21
2023-01-20T00:04:19.348Z,-0.13
2023-01-20T00:06:46.369Z,-0.20
2023-01-20T00:09:17.913Z,-0.27
2023-01-20T00:11:45.698Z,-0.23
2023-01-20T00:14:12.960Z,-0.11
2023-01-20T00:16:39.813Z,-0.17
2023-01-20T00:19:06.841Z,-0.23
2023-01-20T00:21:35.258Z,-0.24
2023-01-20T00:24:02.154Z,-0.16
2023-01-20T00:26:29.061Z,-0.20
2023-01-20T00:28:57.898Z,-0.07
2023-01-20T00:31:29.950Z,0.00
2023-01-20T00:33:59.559Z,0.03
2023-01-20T00:36:28.515Z,0.07
2023-01-20T00:38:55.434Z,0.09
2023-01-20T00:41:22.311Z,-0.10
2023-01-20T00:43:49.296Z,-0.24
2023-01-20T00:46:16.764Z,-0.13
2023-01-20T00:48:43.661Z,-0.10
2023-01-20T00:51:11.064Z,-0.30
2023-01-20T00:53:37.987Z,-0.23
2023-01-20T00:56:05.666Z,-0.21
2023-01-20T00:58:32.520Z,-0.14
2023-01-20T01:00:59.792Z,-0.19
2023-01-20T01:03:30.257Z,-0.28
2023-01-20T01:06:10.228Z,-0.24
2023-01-20T01:08:37.312Z,-0.44
2023-01-20T01:11:04.876Z,-0.39
2023-01-20T01:13:32.320Z,-0.39
2023-01-20T01:15:59.622Z,-0.45
2023-01-20T01:18:28.931Z,-0.41
2023-01-20T01:20:55.953Z,-0.50
2023-01-20T01:23:22.924Z,-0.40
2023-01-20T01:25:49.734Z,-0.51
2023-01-20T01:28:16.652Z,-0.34
2023-01-20T01:30:44.179Z,-0.24
2023-01-20T01:33:11.004Z,-0.41
2023-01-20T01:35:37.844Z,-0.30
2023-01-20T01:38:04.666Z,-0.19
2023-01-20T01:40:31.445Z,-0.34
2023-01-20T01:42:59.471Z,-0.32
2023-01-20T01:45:28.790Z,-0.37
2023-01-20T01:48:13.640Z,-0.39
2023-01-20T01:50:40.449Z,-0.30
2023-01-20T01:53:08.751Z,-0.35
2023-01-20T01:55:39.782Z,-0.33
2023-01-20T01:58:09.000Z,-0.22
2023-01-20T02:00:36.354Z,0.06
2023-01-20T02:03:04.208Z,-0.04
2023-01-20T02:05:31.515Z,-0.26
2023-01-20T02:07:59.971Z,-0.34
2023-01-20T02:10:27.081Z,-0.26
2023-01-20T02:12:54.766Z,-0.25
2023-01-20T02:15:27.558Z,-0.26
2023-01-20T02:18:12.644Z,-0.22
2023-01-20T02:21:13.723Z,-0.09
2023-01-20T02:24:07.772Z,0.08
2023-01-20T02:27:06.837Z,0.06
2023-01-20T02:30:12.169Z,0.13
2023-01-20T02:32:56.836Z,0.05
2023-01-20T02:35:30.033Z,0.09
2023-01-20T02:38:49.976Z,-0.14
2023-01-20T02:41:23.679Z,-0.03
2023-01-20T02:44:16.645Z,0.05
2023-01-20T02:46:57.905Z,-0.07
2023-01-20T02:49:30.493Z,-0.09
2023-01-20T02:52:03.606Z,-0.10
2023-01-20T02:54:34.832Z,-0.13
2023-01-20T02:57:04.305Z,-0.08
2023-01-20T02:59:36.559Z,0.11
2023-01-20T03:02:09.154Z,0.15
2023-01-20T03:04:45.141Z,0.17
2023-01-20T03:07:14.539Z,0.08
2023-01-20T03:09:47.682Z,0.05
2023-01-20T03:12:22.475Z,0.02
2023-01-20T03:14:52.121Z,-0.04
2023-01-20T03:17:23.082Z,-0.02
2023-01-20T03:19:50.161Z,0.10
2023-01-20T03:22:17.267Z,0.11
2023-01-20T03:24:46.453Z,0.20
2023-01-20T03:27:14.854Z,0.08
2023-01-20T03:29:41.781Z,0.13
2023-01-20T03:32:11.041Z,0.20
2023-01-20T03:34:40.683Z,0.25
2023-01-20T03:37:08.493Z,0.30
2023-01-20T03:39:39.851Z,0.28
2023-01-20T03:42:22.147Z,0.35
2023-01-20T03:45:05.995Z,0.24
2023-01-20T03:47:57.357Z,0.20
2023-01-20T03:50:24.201Z,0.25
2023-01-20T03:52:53.903Z,0.21
2023-01-20T03:55:32.313Z,0.30
2023-01-20T03:58:04.977Z,0.45
2023-01-20T04:00:35.748Z,0.32
2023-01-20T04:03:08.738Z,0.28
2023-01-20T04:05:37.616Z,0.38
2023-01-20T04:08:08.900Z,0.41
2023-01-20T04:10:39.322Z,0.39
2023-01-20T04:13:06.253Z,0.35
2023-01-20T04:15:44.643Z,0.33
2023-01-20T04:18:12.610Z,0.31
2023-01-20T04:20:40.342Z,0.28
2023-01-20T04:23:14.397Z,0.36
2023-01-20T04:25:41.487Z,0.48
2023-01-20T04:28:08.296Z,0.45
2023-01-20T04:30:35.273Z,0.50
2023-01-20T04:33:02.135Z,0.49
2023-01-20T04:35:28.966Z,0.55
2023-01-20T04:37:55.962Z,0.55
2023-01-20T04:40:22.941Z,0.69
2023-01-20T04:42:49.765Z,0.65
2023-01-20T04:45:17.582Z,0.82
2023-01-20T04:47:44.990Z,0.84
2023-01-20T04:50:14.173Z,0.74
2023-01-20T04:52:41.323Z,0.75
2023-01-20T04:55:08.890Z,0.83
2023-01-20T04:57:35.687Z,0.79
2023-01-20T05:00:02.732Z,0.73
2023-01-20T05:02:29.673Z,0.76
2023-01-20T05:04:56.581Z,0.70
2023-01-20T05:07:23.607Z,0.70
2023-01-20T05:09:50.487Z,0.73
2023-01-20T05:12:17.268Z,0.78
2023-01-20T05:14:44.179Z,0.83
2023-01-20T05:17:11.047Z,0.85
2023-01-20T05:19:38.133Z,0.91
2023-01-20T05:22:04.938Z,0.89
2023-01-20T05:24:36.612Z,0.87
2023-01-20T05:27:06.347Z,0.85
2023-01-20T05:29:35.425Z,0.97
2023-01-20T05:32:02.239Z,0.97
2023-01-20T05:34:29.047Z,1.00
2023-01-20T05:36:55.953Z,0.95
2023-01-20T05:39:23.079Z,0.97
2023-01-20T05:41:50.064Z,0.99
2023-01-20T05:44:17.078Z,0.93
2023-01-20T05:46:43.956Z,0.99
2023-01-20T05:49:12.757Z,0.97
2023-01-20T05:51:39.702Z,0.96
2023-01-20T05:54:06.616Z,0.95
2023-01-20T05:56:33.511Z,1.02
2023-01-20T05:59:00.411Z,1.04
2023-01-20T06:01:27.787Z,1.05
2023-01-20T06:03:54.835Z,1.03
2023-01-20T06:06:21.829Z,1.11
2023-01-20T06:08:49.751Z,1.21
2023-01-20T06:11:18.181Z,1.19
2023-01-20T06:13:48.285Z,1.14
2023-01-20T06:16:16.867Z,1.06
2023-01-20T06:18:43.882Z,1.07
2023-01-20T06:21:10.896Z,1.09
2023-01-20T06:23:37.827Z,1.10
2023-01-20T06:26:11.777Z,1.17
2023-01-20T06:28:38.709Z,1.14
2023-01-20T06:31:08.732Z,1.13
2023-01-20T06:33:36.177Z,1.19
2023-01-20T06:36:04.559Z,1.22
2023-01-20T06:38:33.632Z,1.19
2023-01-20T06:41:03.204Z,1.18
2023-01-20T06:43:35.265Z,1.20
2023-01-20T06:46:04.734Z,1.19
2023-01-20T06:48:32.456Z,1.18
2023-01-20T06:51:04.549Z,1.23
2023-01-20T06:53:31.559Z,1.36
2023-01-20T06:56:00.835Z,1.33
2023-01-20T06:58:30.542Z,1.36
2023-01-20T07:00:58.515Z,1.29
2023-01-20T07:03:25.544Z,1.32
2023-01-20T07:05:59.170Z,1.31
2023-01-20T07:08:26.261Z,1.43
2023-01-20T07:10:53.101Z,1.43
2023-01-20T07:13:20.302Z,1.44
2023-01-20T07:15:47.156Z,1.42
2023-01-20T07:18:14.186Z,1.38
2023-01-20T07:20:41.068Z,1.48
2023-01-20T07:23:08.108Z,1.54
2023-01-20T07:25:35.042Z,1.42
2023-01-20T07:28:01.921Z,1.42
2023-01-20T07:30:28.921Z,1.39
2023-01-20T07:32:56.055Z,1.49
2023-01-20T07:35:24.258Z,1.37
2023-01-20T07:37:51.140Z,1.42
2023-01-20T07:40:18.203Z,1.39
2023-01-20T07:42:45.241Z,1.42
2023-01-20T07:45:12.203Z,1.44
2023-01-20T07:47:39.448Z,1.46
2023-01-20T07:50:06.547Z,1.51
2023-01-20T07:52:33.603Z,1.52
2023-01-20T07:55:00.552Z,1.65
2023-01-20T07:57:30.367Z,1.60
2023-01-20T07:59:57.251Z,1.72
2023-01-20T08:02:24.255Z,1.73
2023-01-20T08:04:51.113Z,1.84
2023-01-20T08:07:19.021Z,1.85
2023-01-20T08:09:46.307Z,1.91
2023-01-20T08:12:13.193Z,1.93
2023-01-20T08:14:40.166Z,1.93
2023-01-20T08:17:07.062Z,1.92
2023-01-20T08:19:33.929Z,2.01
2023-01-20T08:22:00.817Z,1.94
2023-01-20T08:24:27.620Z,1.98
2023-01-20T08:26:54.583Z,2.12
2023-01-20T08:29:21.427Z,2.19
2023-01-20T08:31:48.583Z,2.15
2023-01-20T08:34:15.567Z,2.21
2023-01-20T08:36:42.693Z,2.22
2023-01-20T08:39:18.717Z,1.94
2023-01-20T08:41:46.703Z,1.69
2023-01-20T08:44:14.961Z,1.77
2023-01-20T08:46:42.189Z,1.97
2023-01-20T08:49:11.483Z,2.13
2023-01-20T08:51:38.934Z,2.09
2023-01-20T08:54:06.019Z,2.16
2023-01-20T08:56:34.187Z,2.28
2023-01-20T08:59:02.375Z,2.36
2023-01-20T09:01:32.319Z,2.20
2023-01-20T09:04:05.790Z,2.48
2023-01-20T09:06:42.467Z,2.31
2023-01-20T09:09:10.140Z,2.41
2023-01-20T09:11:37.275Z,2.48
2023-01-20T09:14:04.234Z,2.49
2023-01-20T09:16:31.029Z,2.54
2023-01-20T09:18:57.869Z,2.41
2023-01-20T09:21:24.753Z,2.44
2023-01-20T09:23:52.420Z,2.40
2023-01-20T09:26:34.218Z,2.59
2023-01-20T09:29:09.759Z,2.51
2023-01-20T09:31:45.566Z,2.55
2023-01-20T09:34:21.638Z,2.69
2023-01-20T09:36:52.034Z,2.68
2023-01-20T09:39:37.765Z,2.76
2023-01-20T09:42:50.199Z,2.72
2023-01-20T09:45:33.714Z,2.72
2023-01-20T09:48:41.141Z,2.73
2023-01-20T09:51:34.751Z,2.89
2023-01-20T09:54:08.829Z,2.50
2023-01-20T09:56:43.906Z,2.72
2023-01-20T09:59:16.014Z,2.65
2023-01-20T10:01:51.456Z,2.40
2023-01-20T10:04:25.621Z,2.53
2023-01-20T10:07:30.869Z,2.38
2023-01-20T10:10:10.700Z,2.21
2023-01-20T10:12:56.074Z,2.53
2023-01-20T10:15:27.989Z,2.71
2023-01-20T10:18:09.449Z,2.64
2023-01-20T10:20:56.837Z,2.87
2023-01-20T10:23:29.676Z,2.90
2023-01-20T10:26:07.638Z,3.01
2023-01-20T10:28:55.742Z,3.15
2023-01-20T10:31:27.912Z,3.08
2023-01-20T10:34:07.331Z,3.11
2023-01-20T10:36:35.177Z,2.87
2023-01-20T10:39:17.949Z,2.75
2023-01-20T10:41:50.700Z,2.73
2023-01-20T10:44:17.708Z,2.60
2023-01-20T10:46:59.637Z,2.57
2023-01-20T10:49:52.901Z,2.59
2023-01-20T10:52:25.560Z,2.38
2023-01-20T10:55:24.535Z,2.31
2023-01-20T10:58:02.175Z,2.19
2023-01-20T11:00:31.770Z,2.24
2023-01-20T11:03:00.905Z,2.16
2023-01-20T11:05:37.422Z,2.05
2023-01-20T11:08:15.480Z,2.03
2023-01-20T11:10:42.557Z,2.04
2023-01-20T11:13:11.205Z,2.03
2023-01-20T11:15:43.515Z,1.89
2023-01-20T11:18:16.372Z,1.82
2023-01-20T11:20:47.981Z,1.86
2023-01-20T11:23:34.415Z,1.74
2023-01-20T11:26:10.174Z,1.88
2023-01-20T11:28:46.484Z,1.99
2023-01-20T11:31:14.162Z,2.16
2023-01-20T11:33:54.015Z,2.31
2023-01-20T11:36:24.105Z,2.32
2023-01-20T11:38:52.491Z,2.13
2023-01-20T11:41:27.232Z,2.20
2023-01-20T11:43:56.513Z,2.17
2023-01-20T11:46:30.439Z,2.21
2023-01-20T11:49:22.974Z,2.14
2023-01-20T11:51:55.897Z,2.37
2023-01-20T11:54:30.365Z,1.84
2023-01-20T11:57:04.791Z,1.74
2023-01-20T11:59:35.139Z,1.81
2023-01-20T12:02:20.519Z,1.80
2023-01-20T12:05:10.785Z,1.77
2023-01-20T12:07:49.099Z,1.80
2023-01-20T12:10:30.401Z,1.87
2023-01-20T12:13:06.003Z,1.75
2023-01-20T12:15:37.871Z,1.81
2023-01-20T12:18:35.464Z,1.76
2023-01-20T12:21:10.538Z,1.76
2023-01-20T12:23:46.483Z,1.66
2023-01-20T12:26:15.719Z,1.31
2023-01-20T12:28:55.041Z,1.29
2023-01-20T12:31:25.864Z,1.22
2023-01-20T12:33:58.186Z,1.40
2023-01-20T12:36:43.223Z,1.49
2023-01-20T12:39:40.501Z,1.69
2023-01-20T12:42:34.259Z,1.71
2023-01-20T12:45:13.005Z,1.79
2023-01-20T12:48:00.137Z,1.87
2023-01-20T12:50:35.666Z,2.22
2023-01-20T12:53:38.993Z,1.80
2023-01-20T12:56:05.907Z,1.44
2023-01-20T12:58:46.351Z,1.53
2023-01-20T13:01:22.332Z,1.62
2023-01-20T13:04:26.638Z,1.82
2023-01-20T13:07:02.025Z,2.07
2023-01-20T13:09:40.650Z,1.92
2023-01-20T13:12:31.964Z,2.00
2023-01-20T13:15:26.950Z,1.76
2023-01-20T13:18:11.735Z,1.63
2023-01-20T13:20:45.658Z,1.44
2023-01-20T13:23:34.701Z,1.07
2023-01-20T13:26:05.038Z,0.61
2023-01-20T13:28:32.138Z,0.78
2023-01-20T13:31:00.888Z,0.86
2023-01-20T13:33:39.964Z,0.90
2023-01-20T13:36:23.797Z,1.14
2023-01-20T13:39:11.916Z,1.41
2023-01-20T13:41:52.663Z,1.44
2023-01-20T13:44:46.104Z,1.44
2023-01-20T13:47:47.851Z,1.03
2023-01-20T13:50:42.580Z,1.28
2023-01-20T13:53:21.699Z,1.26
2023-01-20T13:55:48.616Z,1.43
2023-01-20T13:58:16.097Z,1.47
2023-01-20T14:00:44.046Z,1.40
2023-01-20T14:03:19.740Z,1.51
2023-01-20T14:05:53.573Z,1.59
2023-01-20T14:08:22.047Z,1.37
2023-01-20T14:10:49.124Z,1.15
2023-01-20T14:13:24.578Z,1.33
2023-01-20T14:15:56.008Z,1.59
2023-01-20T14:18:26.070Z,1.35
2023-01-20T14:21:18.060Z,1.42
2023-01-20T14:23:48.216Z,1.44
2023-01-20T14:26:22.411Z,1.66
2023-01-20T14:28:52.389Z,1.41
2023-01-20T14:31:20.820Z,1.45
2023-01-20T14:33:58.305Z,1.28
2023-01-20T14:36:26.692Z,0.99
2023-01-20T14:38:58.481Z,1.16
2023-01-20T14:41:29.003Z,1.39
2023-01-20T14:43:56.028Z,1.35
2023-01-20T14:46:24.892Z,1.34
2023-01-20T14:48:54.074Z,1.33
2023-01-20T14:51:22.588Z,1.19
2023-01-20T14:54:27.799Z,0.92
2023-01-20T14:56:54.852Z,1.09
2023-01-20T14:59:22.303Z,0.92
2023-01-20T15:02:01.040Z,0.85
2023-01-20T15:04:35.885Z,0.91
2023-01-20T15:07:03.416Z,0.99
2023-01-20T15:09:35.033Z,1.13
2023-01-20T15:12:46.956Z,1.19
2023-01-20T15:15:36.275Z,1.16
2023-01-20T15:18:15.735Z,1.00
2023-01-20T15:20:47.193Z,0.80
2023-01-20T15:23:19.494Z,0.92
2023-01-20T15:25:47.483Z,0.98
2023-01-20T15:28:26.303Z,0.96
2023-01-20T15:30:55.064Z,0.96
2023-01-20T15:33:24.075Z,0.90
2023-01-20T15:35:55.935Z,1.28
2023-01-20T15:38:22.953Z,0.88
2023-01-20T15:40:50.220Z,0.70
2023-01-20T15:43:18.285Z,0.74
2023-01-20T15:45:45.687Z,0.76
2023-01-20T15:48:22.402Z,0.71
2023-01-20T15:50:49.261Z,0.74
2023-01-20T15:53:16.328Z,0.74
2023-01-20T15:55:50.488Z,0.78
2023-01-20T15:58:21.932Z,0.70
2023-01-20T16:00:48.909Z,0.72
2023-01-20T16:03:15.782Z,0.84
2023-01-20T16:05:42.679Z,0.84
2023-01-20T16:08:15.894Z,0.85
2023-01-20T16:10:42.936Z,0.85
2023-01-20T16:13:12.802Z,0.85
2023-01-20T16:15:42.438Z,0.95
2023-01-20T16:18:14.760Z,0.89
2023-01-20T16:20:43.308Z,0.88
2023-01-20T16:23:10.232Z,0.86
2023-01-20T16:25:38.076Z,0.98
2023-01-20T16:28:14.826Z,1.11
2023-01-20T16:30:42.018Z,1.08
2023-01-20T16:33:17.566Z,1.29
2023-01-20T16:35:44.583Z,1.18
2023-01-20T16:38:16.853Z,1.26
2023-01-20T16:41:17.651Z,1.31
2023-01-20T16:43:44.520Z,1.40
2023-01-20T16:46:28.555Z,1.43
2023-01-20T16:49:05.197Z,1.44
2023-01-20T16:51:32.792Z,1.49
2023-01-20T16:53:59.994Z,1.52
2023-01-20T16:56:28.995Z,1.40
2023-01-20T16:58:57.974Z,1.37
2023-01-20T17:01:26.234Z,1.35
2023-01-20T17:03:58.801Z,1.37
2023-01-20T17:06:31.142Z,1.61
2023-01-20T17:09:00.121Z,1.50
2023-01-20T17:11:30.056Z,1.60
2023-01-20T17:13:57.510Z,1.56
2023-01-20T17:16:27.974Z,1.37
2023-01-20T17:18:56.804Z,1.29
2023-01-20T17:21:24.601Z,1.20
2023-01-20T17:23:53.230Z,1.21
2023-01-20T17:26:21.349Z,1.24
2023-01-20T17:28:48.396Z,1.35
2023-01-20T17:31:15.354Z,1.39
2023-01-20T17:33:46.642Z,1.33
2023-01-20T17:36:13.579Z,1.32
2023-01-20T17:38:40.524Z,1.37
2023-01-20T17:41:08.636Z,1.46
2023-01-20T17:43:41.307Z,1.76
2023-01-20T17:46:16.910Z,1.76
2023-01-20T17:48:44.574Z,1.51
2023-01-20T17:51:14.343Z,1.41
2023-01-20T17:53:41.703Z,1.51
2023-01-20T17:56:12.687Z,1.46
2023-01-20T17:58:42.172Z,1.38
2023-01-20T18:01:11.134Z,1.34
2023-01-20T18:03:40.012Z,1.28
2023-01-20T18:06:08.905Z,1.35
2023-01-20T18:08:36.340Z,1.27
2023-01-20T18:11:11.775Z,1.28
2023-01-20T18:13:39.225Z,1.29
2023-01-20T18:16:11.837Z,1.29
2023-01-20T18:18:39.893Z,1.40
2023-01-20T18:21:14.547Z,1.42
2023-01-20T18:23:42.580Z,1.60
2023-01-20T18:26:11.706Z,1.58
2023-01-20T18:28:38.593Z,1.55
2023-01-20T18:31:10.850Z,1.58
2023-01-20T18:33:44.413Z,1.53
2023-01-20T18:36:14.985Z,1.41
2023-01-20T18:38:45.264Z,1.46
2023-01-20T18:41:15.148Z,1.46
2023-01-20T18:43:42.177Z,1.49
2023-01-20T18:46:09.660Z,1.46
2023-01-20T18:48:40.556Z,1.51
2023-01-20T18:51:15.072Z,1.58
2023-01-20T18:53:45.068Z,1.65
2023-01-20T18:56:16.043Z,1.65
2023-01-20T18:58:49.837Z,1.50
2023-01-20T19:01:19.804Z,1.65
2023-01-20T19:03:48.495Z,1.47
2023-01-20T19:06:18.153Z,1.36
2023-01-20T19:08:46.174Z,1.31
2023-01-20T19:11:17.752Z,1.31
2023-01-20T19:13:46.458Z,1.27
2023-01-20T19:16:13.409Z,1.18
2023-01-20T19:18:41.659Z,1.20
2023-01-20T19:21:15.532Z,1.08
2023-01-20T19:23:43.523Z,1.13
2023-01-20T19:26:12.598Z,1.15
2023-01-20T19:28:40.755Z,1.34
2023-01-20T19:31:09.791Z,1.26
2023-01-20T19:33:37.999Z,1.14
2023-01-20T19:36:11.475Z,1.03
2023-01-20T19:38:38.626Z,0.94
2023-01-20T19:41:09.770Z,0.70
2023-01-20T19:43:37.472Z,0.55
2023-01-20T19:46:06.518Z,0.51
2023-01-20T19:48:33.618Z,0.40
2023-01-20T19:51:04.698Z,0.27
2023-01-20T19:53:32.241Z,0.33
2023-01-20T19:56:06.366Z,0.18
2023-01-20T19:58:33.843Z,0.01
2023-01-20T20:01:11.368Z,-0.11
2023-01-20T20:03:39.815Z,-0.09
2023-01-20T20:06:08.211Z,-0.05
2023-01-20T20:08:37.755Z,-0.13
2023-01-20T20:11:04.749Z,-0.14
2023-01-20T20:13:31.637Z,-0.32
2023-01-20T20:16:05.722Z,-0.40
2023-01-20T20:18:32.968Z,-0.46
2023-01-20T20:21:00.136Z,-0.50
2023-01-20T20:23:27.191Z,-0.54
2023-01-20T20:25:57.961Z,-0.62
2023-01-20T20:28:28.873Z,-0.71
2023-01-20T20:30:55.948Z,-0.76
2023-01-20T20:33:24.563Z,-0.82
2023-01-20T20:35:52.047Z,-0.82
2023-01-20T20:38:18.892Z,-0.85
2023-01-20T20:40:46.098Z,-0.88
2023-01-20T20:43:13.101Z,-0.90
2023-01-20T20:45:39.954Z,-0.89
2023-01-20T20:48:06.845Z,-0.85
2023-01-20T20:50:34.119Z,-0.85
2023-01-20T20:53:01.007Z,-0.92
2023-01-20T20:55:29.395Z,-0.88
2023-01-20T20:57:56.692Z,-0.94
2023-01-20T21:00:28.202Z,-1.01
2023-01-20T21:02:55.764Z,-0.99
2023-01-20T21:05:22.629Z,-0.91
2023-01-20T21:07:49.476Z,-0.84
2023-01-20T21:10:17.718Z,-0.72
2023-01-20T21:12:45.036Z,-0.70
2023-01-20T21:15:12.161Z,-0.69
2023-01-20T21:17:39.495Z,-0.70
2023-01-20T21:20:08.045Z,-0.83
2023-01-20T21:22:35.169Z,-0.88
2023-01-20T21:25:02.130Z,-0.79
2023-01-20T21:27:31.214Z,-0.71
2023-01-20T21:29:58.150Z,-0.90
2023-01-20T21:32:25.310Z,-1.01
2023-01-20T21:34:53.103Z,-0.85
2023-01-20T21:37:20.702Z,-0.92
2023-01-20T21:39:47.510Z,-0.89
2023-01-20T21:42:14.380Z,-0.88
2023-01-20T21:44:43.306Z,-0.89
2023-01-20T21:47:10.925Z,-0.75
2023-01-20T21:49:56.437Z,-0.57
2023-01-20T21:52:43.137Z,-0.59
2023-01-20T21:55:17.416Z,-0.57
2023-01-20T21:57:44.607Z,-0.52
2023-01-20T22:00:13.281Z,-0.76
2023-01-20T22:02:43.563Z,-0.61
2023-01-20T22:05:11.238Z,-0.55
2023-01-20T22:07:38.350Z,-0.54
2023-01-20T22:10:05.847Z,-0.48
2023-01-20T22:12:34.784Z,-0.50
2023-01-20T22:15:03.598Z,-0.68
2023-01-20T22:17:31.094Z,-0.60
2023-01-20T22:19:57.978Z,-0.51
2023-01-20T22:22:24.836Z,-0.60
2023-01-20T22:24:53.461Z,-0.75
2023-01-20T22:27:20.444Z,-0.72
2023-01-20T22:29:47.461Z,-0.63
2023-01-20T22:32:14.399Z,-0.52
2023-01-20T22:34:42.351Z,-0.48
2023-01-20T22:37:09.520Z,-0.61
2023-01-20T22:39:36.530Z,-0.39
2023-01-20T22:42:03.458Z,-0.17
2023-01-20T22:44:30.359Z,-0.14
2023-01-20T22:46:57.244Z,-0.11
2023-01-20T22:49:27.094Z,-0.05
2023-01-20T22:52:01.466Z,-0.07
2023-01-20T22:54:28.413Z,-0.16
2023-01-20T22:56:55.239Z,-0.26
2023-01-20T22:59:24.772Z,-0.28
2023-01-20T23:01:51.684Z,-0.13
2023-01-20T23:04:18.533Z,-0.24
2023-01-20T23:06:45.476Z,-0.24
2023-01-20T23:09:14.555Z,-0.07
2023-01-20T23:11:41.912Z,-0.16
2023-01-20T23:14:12.947Z,-0.05
2023-01-20T23:16:41.305Z,0.07
2023-01-20T23:19:08.562Z,0.06
2023-01-20T23:21:36.040Z,-0.05
2023-01-20T23:24:03.006Z,-0.01
2023-01-20T23:26:30.925Z,0.04
2023-01-20T23:28:58.069Z,0.08
2023-01-20T23:31:25.853Z,0.09
2023-01-20T23:33:53.780Z,-0.06
2023-01-20T23:36:25.776Z,-0.11
2023-01-20T23:38:56.912Z,0.08
2023-01-20T23:41:25.399Z,0.06
2023-01-20T23:43:52.254Z,0.15
2023-01-20T23:46:19.195Z,0.16
2023-01-20T23:48:47.116Z,0.12
2023-01-20T23:51:14.365Z,0.10
2023-01-20T23:53:41.688Z,0.09
2023-01-20T23:56:12.998Z,-0.02
2023-01-20T23:58:40.252Z,-0.04
